Nearby METAR Reports

 

KMLI - Moline/Quad City, Illinois, USA
Distance from station: ENE 4mi, 7km
Updated: 02/06/2023 5:52am
Clear
Clear
 Wind from E
Wind: E 7 mph , 11 km/h
Temperature: 25°F , -4°C
Wind Chill: 17°F , -8°C
Dew Point: 21°F , -6°C
Humidity: 86%
Barometer: 30.16 inHg , 1021.3 hPa
Clouds: Clear
Visibility: 8 miles , 13 km
2023/02/06 11:52 KMLI 061152Z 08006KT 8SM CLR M04/M06 A3016 RMK AO2 SLP218 I6000 T10441061 11028 21067 56004
KDVN - Davenport/Quad C, Iowa, USA
Distance from station: N 14mi, 22km
Updated: 02/06/2023 5:52am
Clear
Clear
 Wind from ESE
Wind: ESE 10 mph , 17 km/h
Temperature: 27°F , -3°C
Wind Chill: 18°F , -8°C
Dew Point: 21°F , -6°C
Humidity: 80%
Barometer: 30.17 inHg , 1021.7 hPa
Clouds: Clear
Visibility: 8 miles , 13 km
2023/02/06 11:52 KDVN 061152Z AUTO 12009KT 8SM CLR M03/M06 A3017 RMK AO2 SLP221 I6001 T10281056 11028 21056 56004
 
KMUT - Muscatine, Iowa, USA
Distance from station: W 29mi, 47km
Updated: 02/06/2023 6:15am
Clear
Clear
 Wind from calm
Wind: Calm
Temperature: 25°F , -4°C
Dew Point: 25°F , -4°C
Humidity: 100%
Barometer: 30.14 inHg , 1020.7 hPa
Clouds: Clear
Visibility: 10 miles , 16 km
2023/02/06 12:15 KMUT 061215Z AUTO 00000KT 10SM CLR M04/M04 A3014 RMK AO2
KCWI - Clinton Muni, Iowa, USA
Distance from station: NNE 31mi, 50km
Updated: 02/06/2023 5:56am
Mist, Clear
Mist, Clear
 Wind from E
Wind: E 9 mph , 15 km/h
Temperature: 19°F , -7°C
Wind Chill: 8°F , -13°C
Dew Point: 18°F , -8°C
Humidity: 93%
Barometer: 30.17 inHg , 1021.7 hPa
Summary: Mist
Clouds: Clear
Visibility: 6 miles , 10 km
2023/02/06 11:56 KCWI 061156Z AUTO 10008KT 6SM BR CLR M07/M08 A3017 RMK AO2 SLP230 T10721078 11067 21089 56003 FZRANO
 
KGBG - Galesburg, Illinois, USA
Distance from station: SSE 35mi, 56km
Updated: 02/06/2023 6:15am
Clear
Clear
 Wind from SE
Wind: SE 7 mph , 11 km/h
Temperature: 28°F , -2°C
Wind Chill: 21°F , -6°C
Dew Point: 28°F , -2°C
Humidity: 100%
Barometer: 30.17 inHg , 1021.7 hPa
Clouds: Clear
Visibility: 10 miles , 16 km
2023/02/06 12:15 KGBG 061215Z AUTO 13006KT 10SM CLR M02/M02 A3017 RMK AO2 T10251025
KSFY - Savanna/Tritown, Illinois, USA
Distance from station: NNE 50mi, 80km
Updated: 02/06/2023 5:53am
Clear
Clear
 Wind from E
Wind: E 3 mph , 6 km/h
Temperature: 19°F , -7°C
Dew Point: 18°F , -8°C
Humidity: 93%
Barometer: 30.18 inHg , 1022 hPa
Clouds: Clear
Visibility: 10 miles , 16 km
2023/02/06 11:53 KSFY 061153Z AUTO 09003KT 10SM CLR M07/M08 A3018 RMK AO2